sensor_id;sensor_type;location;lat;lon;timestamp;temperature;humidity
75786;DHT22;64402;44.708;37.644;2023-04-25T00:01:34;11.09;90.22
75786;DHT22;64402;44.708;37.644;2023-04-25T00:04:02;11.09;90.23
75786;DHT22;64402;44.708;37.644;2023-04-25T00:06:29;11.07;90.17
75786;DHT22;64402;44.708;37.644;2023-04-25T00:08:57;11.07;89.63
75786;DHT22;64402;44.708;37.644;2023-04-25T00:11:24;11.07;89.61
75786;DHT22;64402;44.708;37.644;2023-04-25T00:13:50;11.08;89.93
75786;DHT22;64402;44.708;37.644;2023-04-25T00:16:17;11.04;89.94
75786;DHT22;64402;44.708;37.644;2023-04-25T00:18:43;11.02;89.68
75786;DHT22;64402;44.708;37.644;2023-04-25T00:21:09;11.04;89.58
75786;DHT22;64402;44.708;37.644;2023-04-25T00:23:36;11.03;89.63
75786;DHT22;64402;44.708;37.644;2023-04-25T00:26:03;11.03;89.63
75786;DHT22;64402;44.708;37.644;2023-04-25T00:28:29;11.04;89.71
75786;DHT22;64402;44.708;37.644;2023-04-25T00:30:55;11.00;90.22
75786;DHT22;64402;44.708;37.644;2023-04-25T00:33:21;10.99;89.80
75786;DHT22;64402;44.708;37.644;2023-04-25T00:35:47;11.00;89.75
75786;DHT22;64402;44.708;37.644;2023-04-25T00:38:13;11.00;89.86
75786;DHT22;64402;44.708;37.644;2023-04-25T00:40:40;10.98;89.56
75786;DHT22;64402;44.708;37.644;2023-04-25T00:43:09;10.99;89.53
75786;DHT22;64402;44.708;37.644;2023-04-25T00:45:38;10.96;89.34
75786;DHT22;64402;44.708;37.644;2023-04-25T00:48:05;10.94;88.87
75786;DHT22;64402;44.708;37.644;2023-04-25T00:50:33;10.89;89.32
75786;DHT22;64402;44.708;37.644;2023-04-25T00:53:00;10.88;89.88
75786;DHT22;64402;44.708;37.644;2023-04-25T00:55:27;10.85;89.94
75786;DHT22;64402;44.708;37.644;2023-04-25T00:57:53;10.82;88.20
75786;DHT22;64402;44.708;37.644;2023-04-25T01:00:19;10.78;89.86
75786;DHT22;64402;44.708;37.644;2023-04-25T01:02:46;10.74;90.25
75786;DHT22;64402;44.708;37.644;2023-04-25T01:05:13;10.79;90.18
75786;DHT22;64402;44.708;37.644;2023-04-25T01:07:40;10.78;90.56
75786;DHT22;64402;44.708;37.644;2023-04-25T01:10:07;10.74;89.42
75786;DHT22;64402;44.708;37.644;2023-04-25T01:12:33;10.71;87.59
75786;DHT22;64402;44.708;37.644;2023-04-25T01:15:00;10.72;87.15
75786;DHT22;64402;44.708;37.644;2023-04-25T01:17:26;10.68;87.04
75786;DHT22;64402;44.708;37.644;2023-04-25T01:19:53;10.64;87.34
75786;DHT22;64402;44.708;37.644;2023-04-25T01:22:19;10.62;87.45
75786;DHT22;64402;44.708;37.644;2023-04-25T01:24:46;10.59;88.09
75786;DHT22;64402;44.708;37.644;2023-04-25T01:27:13;10.59;88.38
75786;DHT22;64402;44.708;37.644;2023-04-25T01:29:39;10.59;88.70
75786;DHT22;64402;44.708;37.644;2023-04-25T01:32:08;10.62;89.08
75786;DHT22;64402;44.708;37.644;2023-04-25T01:34:35;10.64;89.31
75786;DHT22;64402;44.708;37.644;2023-04-25T01:37:01;10.66;89.63
75786;DHT22;64402;44.708;37.644;2023-04-25T01:39:28;10.63;90.31
75786;DHT22;64402;44.708;37.644;2023-04-25T01:41:54;10.66;90.43
75786;DHT22;64402;44.708;37.644;2023-04-25T01:44:20;10.72;90.69
75786;DHT22;64402;44.708;37.644;2023-04-25T01:46:47;10.78;91.04
75786;DHT22;64402;44.708;37.644;2023-04-25T01:49:13;10.84;91.69
75786;DHT22;64402;44.708;37.644;2023-04-25T01:51:39;10.88;91.64
75786;DHT22;64402;44.708;37.644;2023-04-25T01:54:05;10.90;92.01
75786;DHT22;64402;44.708;37.644;2023-04-25T01:56:34;10.99;91.24
75786;DHT22;64402;44.708;37.644;2023-04-25T01:59:03;11.08;91.77
75786;DHT22;64402;44.708;37.644;2023-04-25T02:01:30;11.08;91.82
75786;DHT22;64402;44.708;37.644;2023-04-25T02:03:56;11.07;91.75
75786;DHT22;64402;44.708;37.644;2023-04-25T02:06:22;11.09;91.73
75786;DHT22;64402;44.708;37.644;2023-04-25T02:08:49;11.10;91.43
75786;DHT22;64402;44.708;37.644;2023-04-25T02:11:15;11.05;92.08
75786;DHT22;64402;44.708;37.644;2023-04-25T02:13:41;11.04;91.34
75786;DHT22;64402;44.708;37.644;2023-04-25T02:16:07;11.04;90.73
75786;DHT22;64402;44.708;37.644;2023-04-25T02:18:34;11.04;91.50
75786;DHT22;64402;44.708;37.644;2023-04-25T02:21:02;11.02;91.91
75786;DHT22;64402;44.708;37.644;2023-04-25T02:23:29;11.03;91.88
75786;DHT22;64402;44.708;37.644;2023-04-25T02:25:56;11.07;91.53
75786;DHT22;64402;44.708;37.644;2023-04-25T02:28:24;11.08;91.70
75786;DHT22;64402;44.708;37.644;2023-04-25T02:30:52;11.09;91.90
75786;DHT22;64402;44.708;37.644;2023-04-25T02:33:18;11.10;91.73
75786;DHT22;64402;44.708;37.644;2023-04-25T02:35:44;11.12;91.93
75786;DHT22;64402;44.708;37.644;2023-04-25T02:38:10;11.11;91.72
75786;DHT22;64402;44.708;37.644;2023-04-25T02:40:36;11.13;91.69
75786;DHT22;64402;44.708;37.644;2023-04-25T02:43:02;11.11;91.50
75786;DHT22;64402;44.708;37.644;2023-04-25T02:45:29;11.09;91.24
75786;DHT22;64402;44.708;37.644;2023-04-25T02:47:55;11.04;90.47
75786;DHT22;64402;44.708;37.644;2023-04-25T02:50:21;11.03;90.64
75786;DHT22;64402;44.708;37.644;2023-04-25T02:52:48;11.01;90.58
75786;DHT22;64402;44.708;37.644;2023-04-25T02:55:14;11.00;90.38
75786;DHT22;64402;44.708;37.644;2023-04-25T02:57:41;11.00;90.22
75786;DHT22;64402;44.708;37.644;2023-04-25T03:00:08;10.99;90.62
75786;DHT22;64402;44.708;37.644;2023-04-25T03:02:34;11.01;90.32
75786;DHT22;64402;44.708;37.644;2023-04-25T03:05:01;11.00;89.86
75786;DHT22;64402;44.708;37.644;2023-04-25T03:07:27;11.00;90.27
75786;DHT22;64402;44.708;37.644;2023-04-25T03:09:53;11.03;90.50
75786;DHT22;64402;44.708;37.644;2023-04-25T03:12:21;11.03;90.63
75786;DHT22;64402;44.708;37.644;2023-04-25T03:14:47;11.04;91.78
75786;DHT22;64402;44.708;37.644;2023-04-25T03:17:14;11.05;92.19
75786;DHT22;64402;44.708;37.644;2023-04-25T03:19:40;11.09;92.03
75786;DHT22;64402;44.708;37.644;2023-04-25T03:22:07;11.12;91.75
75786;DHT22;64402;44.708;37.644;2023-04-25T03:24:33;11.13;92.29
75786;DHT22;64402;44.708;37.644;2023-04-25T03:26:59;11.14;91.55
75786;DHT22;64402;44.708;37.644;2023-04-25T03:29:26;11.16;91.20
75786;DHT22;64402;44.708;37.644;2023-04-25T03:31:54;11.17;91.53
75786;DHT22;64402;44.708;37.644;2023-04-25T03:34:20;11.17;91.42
75786;DHT22;64402;44.708;37.644;2023-04-25T03:36:47;11.15;87.84
75786;DHT22;64402;44.708;37.644;2023-04-25T03:39:14;11.11;89.83
75786;DHT22;64402;44.708;37.644;2023-04-25T03:41:40;11.07;90.44
75786;DHT22;64402;44.708;37.644;2023-04-25T03:44:06;11.07;90.47
75786;DHT22;64402;44.708;37.644;2023-04-25T03:46:33;11.07;89.57
75786;DHT22;64402;44.708;37.644;2023-04-25T03:48:59;11.10;90.37
75786;DHT22;64402;44.708;37.644;2023-04-25T03:51:25;11.14;90.48
75786;DHT22;64402;44.708;37.644;2023-04-25T03:53:51;11.23;90.68
75786;DHT22;64402;44.708;37.644;2023-04-25T03:56:18;11.28;91.21
75786;DHT22;64402;44.708;37.644;2023-04-25T03:58:44;11.34;91.25
75786;DHT22;64402;44.708;37.644;2023-04-25T04:01:10;11.38;91.53
75786;DHT22;64402;44.708;37.644;2023-04-25T04:03:36;11.43;90.99
75786;DHT22;64402;44.708;37.644;2023-04-25T04:06:06;11.48;90.09
75786;DHT22;64402;44.708;37.644;2023-04-25T04:08:33;11.52;90.85
75786;DHT22;64402;44.708;37.644;2023-04-25T04:11:00;11.54;91.20
75786;DHT22;64402;44.708;37.644;2023-04-25T04:13:26;11.57;91.11
75786;DHT22;64402;44.708;37.644;2023-04-25T04:15:55;11.60;91.56
75786;DHT22;64402;44.708;37.644;2023-04-25T04:18:26;11.63;91.82
75786;DHT22;64402;44.708;37.644;2023-04-25T04:20:52;11.66;91.53
75786;DHT22;64402;44.708;37.644;2023-04-25T04:23:19;11.67;90.38
75786;DHT22;64402;44.708;37.644;2023-04-25T04:25:46;11.71;91.24
75786;DHT22;64402;44.708;37.644;2023-04-25T04:28:13;11.75;91.84
75786;DHT22;64402;44.708;37.644;2023-04-25T04:30:39;11.78;91.22
75786;DHT22;64402;44.708;37.644;2023-04-25T04:33:07;11.83;91.18
75786;DHT22;64402;44.708;37.644;2023-04-25T04:35:33;11.89;91.21
75786;DHT22;64402;44.708;37.644;2023-04-25T04:37:59;11.91;91.24
75786;DHT22;64402;44.708;37.644;2023-04-25T04:40:25;11.98;91.44
75786;DHT22;64402;44.708;37.644;2023-04-25T04:42:52;11.99;91.88
75786;DHT22;64402;44.708;37.644;2023-04-25T04:45:19;12.05;91.63
75786;DHT22;64402;44.708;37.644;2023-04-25T04:47:46;12.14;90.85
75786;DHT22;64402;44.708;37.644;2023-04-25T04:50:14;12.19;90.75
75786;DHT22;64402;44.708;37.644;2023-04-25T04:52:40;12.28;90.38
75786;DHT22;64402;44.708;37.644;2023-04-25T04:55:07;12.27;90.02
75786;DHT22;64402;44.708;37.644;2023-04-25T04:57:34;12.29;90.53
75786;DHT22;64402;44.708;37.644;2023-04-25T05:00:01;12.31;90.56
75786;DHT22;64402;44.708;37.644;2023-04-25T05:02:30;12.33;90.65
75786;DHT22;64402;44.708;37.644;2023-04-25T05:04:56;12.40;90.24
75786;DHT22;64402;44.708;37.644;2023-04-25T05:07:23;12.45;90.18
75786;DHT22;64402;44.708;37.644;2023-04-25T05:09:49;12.46;89.95
75786;DHT22;64402;44.708;37.644;2023-04-25T05:12:15;12.46;89.73
75786;DHT22;64402;44.708;37.644;2023-04-25T05:14:41;12.48;89.47
75786;DHT22;64402;44.708;37.644;2023-04-25T05:17:07;12.48;89.31
75786;DHT22;64402;44.708;37.644;2023-04-25T05:19:34;12.53;89.73
75786;DHT22;64402;44.708;37.644;2023-04-25T05:22:00;12.58;88.95
75786;DHT22;64402;44.708;37.644;2023-04-25T05:24:27;12.53;89.42
75786;DHT22;64402;44.708;37.644;2023-04-25T05:26:56;12.52;89.33
75786;DHT22;64402;44.708;37.644;2023-04-25T05:29:22;12.59;89.47
75786;DHT22;64402;44.708;37.644;2023-04-25T05:31:48;12.61;88.28
75786;DHT22;64402;44.708;37.644;2023-04-25T05:34:14;12.64;88.32
75786;DHT22;64402;44.708;37.644;2023-04-25T05:36:42;12.67;87.67
75786;DHT22;64402;44.708;37.644;2023-04-25T05:39:08;12.77;87.04
75786;DHT22;64402;44.708;37.644;2023-04-25T05:41:34;12.76;86.29
75786;DHT22;64402;44.708;37.644;2023-04-25T05:44:00;12.86;85.51
75786;DHT22;64402;44.708;37.644;2023-04-25T05:46:28;12.95;85.96
75786;DHT22;64402;44.708;37.644;2023-04-25T05:48:54;13.10;85.79
75786;DHT22;64402;44.708;37.644;2023-04-25T05:51:23;13.17;83.83
75786;DHT22;64402;44.708;37.644;2023-04-25T05:53:49;13.21;84.32
75786;DHT22;64402;44.708;37.644;2023-04-25T05:56:16;13.21;84.44
75786;DHT22;64402;44.708;37.644;2023-04-25T05:58:42;13.26;84.27
75786;DHT22;64402;44.708;37.644;2023-04-25T06:01:08;13.46;84.42
75786;DHT22;64402;44.708;37.644;2023-04-25T06:03:35;13.50;83.19
75786;DHT22;64402;44.708;37.644;2023-04-25T06:06:04;13.67;83.06
75786;DHT22;64402;44.708;37.644;2023-04-25T06:08:31;13.74;83.48
75786;DHT22;64402;44.708;37.644;2023-04-25T06:10:57;13.85;83.38
75786;DHT22;64402;44.708;37.644;2023-04-25T06:13:23;13.90;82.08
75786;DHT22;64402;44.708;37.644;2023-04-25T06:15:50;14.07;81.09
75786;DHT22;64402;44.708;37.644;2023-04-25T06:18:16;14.15;80.83
75786;DHT22;64402;44.708;37.644;2023-04-25T06:20:43;14.15;81.04
75786;DHT22;64402;44.708;37.644;2023-04-25T06:23:09;14.08;80.06
75786;DHT22;64402;44.708;37.644;2023-04-25T06:25:35;14.01;79.95
75786;DHT22;64402;44.708;37.644;2023-04-25T06:28:02;13.78;81.49
75786;DHT22;64402;44.708;37.644;2023-04-25T06:30:28;13.63;81.30
75786;DHT22;64402;44.708;37.644;2023-04-25T06:32:55;13.55;82.02
75786;DHT22;64402;44.708;37.644;2023-04-25T06:35:22;13.47;81.97
75786;DHT22;64402;44.708;37.644;2023-04-25T06:37:48;13.41;82.53
75786;DHT22;64402;44.708;37.644;2023-04-25T06:40:14;13.40;82.17
75786;DHT22;64402;44.708;37.644;2023-04-25T06:42:43;13.27;82.65
75786;DHT22;64402;44.708;37.644;2023-04-25T06:45:10;13.21;83.78
75786;DHT22;64402;44.708;37.644;2023-04-25T06:47:36;13.22;84.35
75786;DHT22;64402;44.708;37.644;2023-04-25T06:50:03;13.36;84.46
75786;DHT22;64402;44.708;37.644;2023-04-25T06:52:29;13.40;83.25
75786;DHT22;64402;44.708;37.644;2023-04-25T06:54:55;13.43;82.85
75786;DHT22;64402;44.708;37.644;2023-04-25T06:57:22;13.40;83.13
75786;DHT22;64402;44.708;37.644;2023-04-25T06:59:48;13.36;82.72
75786;DHT22;64402;44.708;37.644;2023-04-25T07:02:15;13.34;82.80
75786;DHT22;64402;44.708;37.644;2023-04-25T07:04:41;13.41;81.79
75786;DHT22;64402;44.708;37.644;2023-04-25T07:07:08;13.40;82.87
75786;DHT22;64402;44.708;37.644;2023-04-25T07:09:34;13.55;82.26
75786;DHT22;64402;44.708;37.644;2023-04-25T07:12:00;13.46;81.03
75786;DHT22;64402;44.708;37.644;2023-04-25T07:14:27;13.33;81.69
75786;DHT22;64402;44.708;37.644;2023-04-25T07:16:54;13.33;81.97
75786;DHT22;64402;44.708;37.644;2023-04-25T07:19:23;13.26;81.72
75786;DHT22;64402;44.708;37.644;2023-04-25T07:21:52;13.27;81.59
75786;DHT22;64402;44.708;37.644;2023-04-25T07:24:19;13.24;81.53
75786;DHT22;64402;44.708;37.644;2023-04-25T07:26:45;13.25;81.01
75786;DHT22;64402;44.708;37.644;2023-04-25T07:29:12;13.27;81.23
75786;DHT22;64402;44.708;37.644;2023-04-25T07:31:38;13.34;81.12
75786;DHT22;64402;44.708;37.644;2023-04-25T07:34:05;13.34;80.56
75786;DHT22;64402;44.708;37.644;2023-04-25T07:36:31;13.26;81.60
75786;DHT22;64402;44.708;37.644;2023-04-25T07:38:58;13.23;82.19
75786;DHT22;64402;44.708;37.644;2023-04-25T07:41:24;13.39;82.24
75786;DHT22;64402;44.708;37.644;2023-04-25T07:43:50;13.43;80.72
75786;DHT22;64402;44.708;37.644;2023-04-25T07:46:17;13.38;81.52
75786;DHT22;64402;44.708;37.644;2023-04-25T07:48:43;13.54;80.11
75786;DHT22;64402;44.708;37.644;2023-04-25T07:51:10;13.52;80.32
75786;DHT22;64402;44.708;37.644;2023-04-25T07:53:36;13.75;78.63
75786;DHT22;64402;44.708;37.644;2023-04-25T07:56:03;13.90;79.04
75786;DHT22;64402;44.708;37.644;2023-04-25T07:58:30;14.06;78.27
75786;DHT22;64402;44.708;37.644;2023-04-25T08:00:56;14.12;77.68
75786;DHT22;64402;44.708;37.644;2023-04-25T08:03:22;14.32;77.16
75786;DHT22;64402;44.708;37.644;2023-04-25T08:05:49;14.37;76.71
75786;DHT22;64402;44.708;37.644;2023-04-25T08:08:15;14.13;76.95
75786;DHT22;64402;44.708;37.644;2023-04-25T08:10:41;13.96;77.48
75786;DHT22;64402;44.708;37.644;2023-04-25T08:13:08;13.96;77.01
75786;DHT22;64402;44.708;37.644;2023-04-25T08:15:34;14.12;77.28
75786;DHT22;64402;44.708;37.644;2023-04-25T08:18:01;14.06;76.66
75786;DHT22;64402;44.708;37.644;2023-04-25T08:20:27;13.94;77.37
75786;DHT22;64402;44.708;37.644;2023-04-25T08:22:54;13.99;77.17
75786;DHT22;64402;44.708;37.644;2023-04-25T08:25:20;13.97;77.28
75786;DHT22;64402;44.708;37.644;2023-04-25T08:27:46;14.04;77.95
75786;DHT22;64402;44.708;37.644;2023-04-25T08:30:13;14.20;76.58
75786;DHT22;64402;44.708;37.644;2023-04-25T08:32:40;14.23;77.34
75786;DHT22;64402;44.708;37.644;2023-04-25T08:35:06;14.28;77.29
75786;DHT22;64402;44.708;37.644;2023-04-25T08:37:33;14.29;76.31
75786;DHT22;64402;44.708;37.644;2023-04-25T08:39:59;14.27;76.79
75786;DHT22;64402;44.708;37.644;2023-04-25T08:42:27;14.07;76.89
75786;DHT22;64402;44.708;37.644;2023-04-25T08:44:55;14.13;77.56
75786;DHT22;64402;44.708;37.644;2023-04-25T08:47:22;14.03;76.45
75786;DHT22;64402;44.708;37.644;2023-04-25T08:49:49;14.10;77.92
75786;DHT22;64402;44.708;37.644;2023-04-25T08:52:22;15.29;75.25
75786;DHT22;64402;44.708;37.644;2023-04-25T08:54:49;16.00;71.17
75786;DHT22;64402;44.708;37.644;2023-04-25T08:57:15;15.38;72.91
75786;DHT22;64402;44.708;37.644;2023-04-25T08:59:42;15.12;73.12
75786;DHT22;64402;44.708;37.644;2023-04-25T09:02:12;14.92;72.80
75786;DHT22;64402;44.708;37.644;2023-04-25T09:04:43;16.24;69.81
75786;DHT22;64402;44.708;37.644;2023-04-25T09:07:09;17.34;64.99
75786;DHT22;64402;44.708;37.644;2023-04-25T09:09:36;16.50;65.86
75786;DHT22;64402;44.708;37.644;2023-04-25T09:12:02;15.75;68.24
75786;DHT22;64402;44.708;37.644;2023-04-25T09:14:28;15.92;68.15
75786;DHT22;64402;44.708;37.644;2023-04-25T09:16:58;15.88;68.75
75786;DHT22;64402;44.708;37.644;2023-04-25T09:19:36;15.99;68.22
75786;DHT22;64402;44.708;37.644;2023-04-25T09:22:06;16.21;68.67
75786;DHT22;64402;44.708;37.644;2023-04-25T09:24:40;17.75;63.23
75786;DHT22;64402;44.708;37.644;2023-04-25T09:27:13;18.71;60.57
75786;DHT22;64402;44.708;37.644;2023-04-25T09:29:43;18.57;58.96
75786;DHT22;64402;44.708;37.644;2023-04-25T09:32:22;17.73;62.75
75786;DHT22;64402;44.708;37.644;2023-04-25T09:34:53;17.03;64.22
75786;DHT22;64402;44.708;37.644;2023-04-25T09:37:24;16.88;63.99
75786;DHT22;64402;44.708;37.644;2023-04-25T09:39:58;16.93;64.69
75786;DHT22;64402;44.708;37.644;2023-04-25T09:42:32;16.85;60.87
75786;DHT22;64402;44.708;37.644;2023-04-25T09:45:00;16.87;63.82
75786;DHT22;64402;44.708;37.644;2023-04-25T09:47:30;16.95;63.01
75786;DHT22;64402;44.708;37.644;2023-04-25T09:49:56;16.29;64.95
75786;DHT22;64402;44.708;37.644;2023-04-25T09:52:24;15.95;66.56
75786;DHT22;64402;44.708;37.644;2023-04-25T09:54:52;17.19;63.18
75786;DHT22;64402;44.708;37.644;2023-04-25T09:57:20;16.98;64.05
75786;DHT22;64402;44.708;37.644;2023-04-25T09:59:54;16.22;66.60
75786;DHT22;64402;44.708;37.644;2023-04-25T10:02:24;16.11;65.75
75786;DHT22;64402;44.708;37.644;2023-04-25T10:04:52;18.13;58.72
75786;DHT22;64402;44.708;37.644;2023-04-25T10:07:30;17.87;60.35
75786;DHT22;64402;44.708;37.644;2023-04-25T10:10:01;17.60;61.25
75786;DHT22;64402;44.708;37.644;2023-04-25T10:12:29;17.05;63.06
75786;DHT22;64402;44.708;37.644;2023-04-25T10:15:00;16.25;66.17
75786;DHT22;64402;44.708;37.644;2023-04-25T10:17:27;15.88;67.24
75786;DHT22;64402;44.708;37.644;2023-04-25T10:19:56;15.72;67.16
75786;DHT22;64402;44.708;37.644;2023-04-25T10:22:37;16.52;62.02
75786;DHT22;64402;44.708;37.644;2023-04-25T10:25:05;16.39;63.31
75786;DHT22;64402;44.708;37.644;2023-04-25T10:27:32;15.96;65.40
75786;DHT22;64402;44.708;37.644;2023-04-25T10:30:09;15.46;68.44
75786;DHT22;64402;44.708;37.644;2023-04-25T10:32:39;15.73;68.68
75786;DHT22;64402;44.708;37.644;2023-04-25T10:35:11;15.63;66.51
75786;DHT22;64402;44.708;37.644;2023-04-25T10:37:38;15.74;66.73
75786;DHT22;64402;44.708;37.644;2023-04-25T10:40:11;15.37;67.65
75786;DHT22;64402;44.708;37.644;2023-04-25T10:42:37;15.61;68.37
75786;DHT22;64402;44.708;37.644;2023-04-25T10:45:07;15.61;66.01
75786;DHT22;64402;44.708;37.644;2023-04-25T10:47:43;15.45;67.81
75786;DHT22;64402;44.708;37.644;2023-04-25T10:50:14;15.57;67.90
75786;DHT22;64402;44.708;37.644;2023-04-25T10:52:44;15.45;68.73
75786;DHT22;64402;44.708;37.644;2023-04-25T10:55:10;15.44;68.80
75786;DHT22;64402;44.708;37.644;2023-04-25T10:57:45;15.65;68.30
75786;DHT22;64402;44.708;37.644;2023-04-25T11:00:16;16.11;64.71
75786;DHT22;64402;44.708;37.644;2023-04-25T11:02:52;16.51;62.91
75786;DHT22;64402;44.708;37.644;2023-04-25T11:05:34;18.87;57.74
75786;DHT22;64402;44.708;37.644;2023-04-25T11:08:01;19.05;56.07
75786;DHT22;64402;44.708;37.644;2023-04-25T11:10:31;20.50;51.17
75786;DHT22;64402;44.708;37.644;2023-04-25T11:12:58;19.33;55.30
75786;DHT22;64402;44.708;37.644;2023-04-25T11:15:26;18.80;57.30
75786;DHT22;64402;44.708;37.644;2023-04-25T11:17:53;21.97;48.13
75786;DHT22;64402;44.708;37.644;2023-04-25T11:20:19;21.61;48.30
75786;DHT22;64402;44.708;37.644;2023-04-25T11:22:46;19.57;54.55
75786;DHT22;64402;44.708;37.644;2023-04-25T11:25:14;21.17;49.48
75786;DHT22;64402;44.708;37.644;2023-04-25T11:27:54;20.30;52.97
75786;DHT22;64402;44.708;37.644;2023-04-25T11:30:22;20.09;53.07
75786;DHT22;64402;44.708;37.644;2023-04-25T11:32:49;18.98;57.05
75786;DHT22;64402;44.708;37.644;2023-04-25T11:35:16;18.43;58.42
75786;DHT22;64402;44.708;37.644;2023-04-25T11:37:43;20.48;52.31
75786;DHT22;64402;44.708;37.644;2023-04-25T11:40:10;21.36;48.53
75786;DHT22;64402;44.708;37.644;2023-04-25T11:42:44;20.95;49.69
75786;DHT22;64402;44.708;37.644;2023-04-25T11:45:10;22.61;46.37
75786;DHT22;64402;44.708;37.644;2023-04-25T11:47:37;21.27;49.05
75786;DHT22;64402;44.708;37.644;2023-04-25T11:50:06;19.52;55.00
75786;DHT22;64402;44.708;37.644;2023-04-25T11:52:47;19.70;55.16
75786;DHT22;64402;44.708;37.644;2023-04-25T11:55:18;19.31;55.65
75786;DHT22;64402;44.708;37.644;2023-04-25T11:57:47;18.61;57.16
75786;DHT22;64402;44.708;37.644;2023-04-25T12:00:19;18.04;58.67
75786;DHT22;64402;44.708;37.644;2023-04-25T12:02:50;19.09;56.36
75786;DHT22;64402;44.708;37.644;2023-04-25T12:05:17;19.22;55.21
75786;DHT22;64402;44.708;37.644;2023-04-25T12:07:43;19.24;55.23
75786;DHT22;64402;44.708;37.644;2023-04-25T12:10:12;19.94;52.91
75786;DHT22;64402;44.708;37.644;2023-04-25T12:12:42;21.84;47.47
75786;DHT22;64402;44.708;37.644;2023-04-25T12:15:18;23.26;43.95
75786;DHT22;64402;44.708;37.644;2023-04-25T12:17:50;21.62;47.72
75786;DHT22;64402;44.708;37.644;2023-04-25T12:20:18;22.94;45.61
75786;DHT22;64402;44.708;37.644;2023-04-25T12:22:52;22.96;44.87
75786;DHT22;64402;44.708;37.644;2023-04-25T12:28:15;21.21;48.23
75786;DHT22;64402;44.708;37.644;2023-04-25T12:33:21;20.12;51.70
75786;DHT22;64402;44.708;37.644;2023-04-25T12:35:48;19.57;53.91
75786;DHT22;64402;44.708;37.644;2023-04-25T12:38:25;20.60;50.29
75786;DHT22;64402;44.708;37.644;2023-04-25T12:40:53;21.21;49.02
75786;DHT22;64402;44.708;37.644;2023-04-25T12:43:20;21.94;47.04
75786;DHT22;64402;44.708;37.644;2023-04-25T12:45:49;22.55;45.74
75786;DHT22;64402;44.708;37.644;2023-04-25T12:48:16;23.82;42.42
75786;DHT22;64402;44.708;37.644;2023-04-25T12:50:43;23.72;42.32
75786;DHT22;64402;44.708;37.644;2023-04-25T12:53:10;22.25;45.79
75786;DHT22;64402;44.708;37.644;2023-04-25T12:55:37;20.53;50.33
75786;DHT22;64402;44.708;37.644;2023-04-25T12:58:04;19.58;53.84
75786;DHT22;64402;44.708;37.644;2023-04-25T13:00:30;18.80;56.20
75786;DHT22;64402;44.708;37.644;2023-04-25T13:02:57;18.38;56.78
75786;DHT22;64402;44.708;37.644;2023-04-25T13:05:23;18.10;58.08
75786;DHT22;64402;44.708;37.644;2023-04-25T13:07:50;20.69;50.58
75786;DHT22;64402;44.708;37.644;2023-04-25T13:10:17;20.15;50.88
75786;DHT22;64402;44.708;37.644;2023-04-25T13:12:44;20.51;52.04
75786;DHT22;64402;44.708;37.644;2023-04-25T13:15:11;21.92;48.12
75786;DHT22;64402;44.708;37.644;2023-04-25T13:17:38;20.74;50.59
75786;DHT22;64402;44.708;37.644;2023-04-25T13:20:08;20.01;51.58
75786;DHT22;64402;44.708;37.644;2023-04-25T13:22:37;20.33;51.99
75786;DHT22;64402;44.708;37.644;2023-04-25T13:25:04;20.36;51.94
75786;DHT22;64402;44.708;37.644;2023-04-25T13:27:30;19.89;53.12
75786;DHT22;64402;44.708;37.644;2023-04-25T13:29:58;21.04;51.24
75786;DHT22;64402;44.708;37.644;2023-04-25T13:32:25;20.90;51.32
75786;DHT22;64402;44.708;37.644;2023-04-25T13:34:52;19.85;53.00
75786;DHT22;64402;44.708;37.644;2023-04-25T13:37:19;18.67;57.67
75786;DHT22;64402;44.708;37.644;2023-04-25T13:39:45;18.07;59.77
75786;DHT22;64402;44.708;37.644;2023-04-25T13:42:11;17.58;60.74
75786;DHT22;64402;44.708;37.644;2023-04-25T13:44:38;19.03;57.33
75786;DHT22;64402;44.708;37.644;2023-04-25T13:47:04;20.32;53.52
75786;DHT22;64402;44.708;37.644;2023-04-25T13:49:30;20.59;53.04
75786;DHT22;64402;44.708;37.644;2023-04-25T13:51:56;22.19;48.10
75786;DHT22;64402;44.708;37.644;2023-04-25T13:54:23;22.52;45.25
75786;DHT22;64402;44.708;37.644;2023-04-25T13:56:49;23.21;44.88
75786;DHT22;64402;44.708;37.644;2023-04-25T13:59:16;23.90;43.64
75786;DHT22;64402;44.708;37.644;2023-04-25T14:01:42;24.16;42.65
75786;DHT22;64402;44.708;37.644;2023-04-25T14:04:09;24.66;40.04
75786;DHT22;64402;44.708;37.644;2023-04-25T14:06:35;24.51;39.82
75786;DHT22;64402;44.708;37.644;2023-04-25T14:09:02;24.70;40.79
75786;DHT22;64402;44.708;37.644;2023-04-25T14:11:30;23.69;42.03
75786;DHT22;64402;44.708;37.644;2023-04-25T14:13:56;23.30;43.77
75786;DHT22;64402;44.708;37.644;2023-04-25T14:16:22;22.19;44.76
75786;DHT22;64402;44.708;37.644;2023-04-25T14:18:49;21.22;47.63
75786;DHT22;64402;44.708;37.644;2023-04-25T14:21:15;22.42;45.84
75786;DHT22;64402;44.708;37.644;2023-04-25T14:23:42;23.62;42.88
75786;DHT22;64402;44.708;37.644;2023-04-25T14:26:08;22.61;45.46
75786;DHT22;64402;44.708;37.644;2023-04-25T14:28:38;21.84;47.21
75786;DHT22;64402;44.708;37.644;2023-04-25T14:31:04;20.34;52.10
75786;DHT22;64402;44.708;37.644;2023-04-25T14:33:30;20.83;51.43
75786;DHT22;64402;44.708;37.644;2023-04-25T14:35:57;20.51;51.21
75786;DHT22;64402;44.708;37.644;2023-04-25T14:38:23;20.06;53.02
75786;DHT22;64402;44.708;37.644;2023-04-25T14:40:51;18.91;56.40
75786;DHT22;64402;44.708;37.644;2023-04-25T14:43:19;18.15;59.31
75786;DHT22;64402;44.708;37.644;2023-04-25T14:45:46;17.58;60.36
75786;DHT22;64402;44.708;37.644;2023-04-25T14:48:12;17.81;59.84
75786;DHT22;64402;44.708;37.644;2023-04-25T14:50:38;17.01;61.02
75786;DHT22;64402;44.708;37.644;2023-04-25T14:53:05;16.75;62.45
75786;DHT22;64402;44.708;37.644;2023-04-25T14:55:32;16.24;65.24
75786;DHT22;64402;44.708;37.644;2023-04-25T14:57:58;15.82;66.56
75786;DHT22;64402;44.708;37.644;2023-04-25T15:00:24;15.69;66.12
75786;DHT22;64402;44.708;37.644;2023-04-25T15:02:51;15.24;69.02
75786;DHT22;64402;44.708;37.644;2023-04-25T15:05:17;14.96;69.84
75786;DHT22;64402;44.708;37.644;2023-04-25T15:07:44;14.65;69.61
75786;DHT22;64402;44.708;37.644;2023-04-25T15:10:10;14.50;71.42
75786;DHT22;64402;44.708;37.644;2023-04-25T15:12:44;14.38;70.39
75786;DHT22;64402;44.708;37.644;2023-04-25T15:15:11;14.51;70.79
75786;DHT22;64402;44.708;37.644;2023-04-25T15:17:38;15.18;67.85
75786;DHT22;64402;44.708;37.644;2023-04-25T15:20:06;15.84;64.47
75786;DHT22;64402;44.708;37.644;2023-04-25T15:22:33;15.85;64.85